Historyczne dane pomiarowe

Dodano dane terminowe – wersja testowa.

Dane z okresu 1951-2019

Wersja bazy: 1.34 [2019-03-16, lista zmian], aktualizacja planowana na 2019-04-15

Dane meteo z obszaru Polski uzyskane na podstawie danych udostępnionych przez Instytut Meteorologii i Gospodarki Wodnej – Państwowy Instytut Badawczy.

 

Wybierz Datę:    

       

TemperaturaWilgotnośćWiatrCiśnienieOpadyŚniegCzas trwania zjawisk
 Stacja t tx tn tng RH VA  wxwx mslp ppp RRR   cm mm wxwxwxwxwxwxwx
1999-08-14 13.9 19.7 8.7- 75.0- 3.0 2.3---- 0.0------------
1999-08-13 13.4 19.2 7.2- 81.3- 5.3 3.0---- 0.0------------
1999-08-12 15.3 18.4 13.3- 87.0- 6.0 1.7---- 0.0------------
1999-08-11 18.9 23.7 16.4- 86.3- 7.0 3.0---- 22.4------------
1999-08-10 20.0 28.2 14.2- 77.5- 6.0 1.0---- 3.0------------
1999-08-09 22.7 30.7 15.7- 70.3- 3.7 2.3---- 0.2------------
1999-08-08 21.1 28.2 15.6- 74.8- 6.0 1.3---- 0.0------------
1999-08-07 20.8 28.8 12.3- 75.3- 5.3 0.7---- 0.0------------
1999-08-06 19.9 25.7 15.8- 82.8- 5.7 2.7---- 0.0------------
1999-08-05 18.6 25.7 10.4- 68.0- 4.7 1.7---- 3.8------------
1999-08-04 16.2 22.9 8.9- 77.5- 4.3 1.0---- 0.0------------
1999-08-03 15.4 21.7 8.7- 74.5- 5.0 0.7---- 0.0------------
1999-08-02 16.0 21.5 10.0- 78.8- 6.3 0.7---- 0.0------------
1999-08-01 17.3 22.9 12.8- 67.3- 4.3 2.7---- 0.1------------
1999-07-31 17.4 23.9 10.8- 69.8- 3.3 2.0---- 0.0------------
1999-07-30 16.9 23.7 10.4- 69.5- 2.7 2.7---- 0.2------------
1999-07-29 16.9 22.7 11.8- 77.5- 2.3 3.3---- 0.0------------
1999-07-28 17.8 23.8 13.7- 76.5- 2.7 2.3---- 0.0------------
1999-07-27 17.8 22.1 15.4- 75.0- 6.3 3.7---- 0.0------------
1999-07-26 19.4 25.5 12.2- 78.0- 4.3 1.0---- 0.0------------
1999-07-25 17.1 23.2 10.6- 74.3- 2.3 1.7---- 0.0------------
1999-07-24 15.8 19.7 12.1- 86.8- 6.7 1.7---- 0.0------------
1999-07-23 15.0 19.7 12.6- 91.5- 7.7 1.0---- 5.6------------
1999-07-22 18.6 22.1 15.4- 78.5- 6.3 2.7---- 5.3------------
1999-07-21 20.0 26.7 12.2- 72.5- 5.3 3.7---- 3.5------------
1999-07-20 20.8 27.6 13.7- 64.3- 2.0 1.3---- 0.0------------
1999-07-19 19.2 26.4 11.7- 66.8- 3.3 0.3---- 0.0------------
1999-07-18 17.6 24.6 9.7- 65.0- 2.7 1.3---- 0.0------------
1999-07-17 16.8 21.4 10.9- 72.5- 2.3 0.3---- 0.0------------
1999-07-16 15.7 20.3 12.2- 77.0- 4.3 3.0---- 0.0------------
1999-07-15 15.7 19.2 14.2- 82.5- 6.0 3.7---- 0.0------------
1999-07-14 19.4 26.6 14.7- 80.3- 6.3 3.0---- 0.9------------
1999-07-13 20.1 24.7 15.9- 88.0- 6.3 1.7---- 15.2------------
1999-07-12 19.6 26.0 14.7- 80.3- 4.3 2.3---- 0.5------------
1999-07-11 18.4 21.3 15.9- 77.0- 6.3 5.0---- 2.4------------
1999-07-10 18.9 22.1 16.5- 79.0- 6.7 5.0---- 0.0------------
1999-07-09 18.0 19.8 15.8- 95.8- 7.7 3.3---- 0.0------------
1999-07-08 16.9 18.7 15.8- 97.0- 8.0 3.0---- 3.1------------
1999-07-07 21.1 27.3 18.7- 70.0- 6.3 3.0---- 22.5------------
1999-07-06 24.9 31.4 17.4- 68.8- 2.3 2.3---- 0.0------------
1999-07-05 23.6 29.9 15.6- 73.8- 3.0 1.7---- 0.0------------
1999-07-04 21.5 30.7 12.6- 72.3- 1.3 2.3---- 0.0------------
1999-07-03 18.7 24.5 14.8- 83.8- 2.7 1.7---- 0.0------------
1999-07-02 18.2 24.2 14.4- 75.3- 4.3 2.0---- 0.0------------
1999-07-01 19.4 24.2 12.8- 73.5- 5.0 1.0---- 0.0------------
1999-06-30 18.9 24.2 12.6- 74.3- 4.3 1.3---- 0.0------------
1999-06-29 18.3 24.0 13.6- 81.5- 3.0 2.3---- 0.0------------
1999-06-28 18.6 26.7 11.7- 75.8- 4.3 0.7---- 1.8------------
1999-06-27 19.6 25.2 9.8- 62.5- 2.0 2.3---- 0.0------------
1999-06-26 14.2 22.9 4.5- 84.0- 4.0 1.7---- 0.0------------
1999-06-25 12.6 17.5 4.6- 83.0- 4.7 2.7---- 0.0------------
1999-06-24 11.5 15.0 7.7- 83.0- 5.0 2.0---- 0.0------------
1999-06-23 8.9 10.8 6.6- 96.0- 8.0 3.0---- 3.2------------
1999-06-22 9.7 14.0 7.6- 96.0- 8.0 8.0---- 54.8------------
1999-06-21 17.3 23.0 14.0- 82.8- 6.3 2.3---- 24.8------------
1999-06-20 17.2 20.9 13.6- 84.3- 7.0 1.0---- 0.0------------
1999-06-19 13.8 15.7 12.1- 92.0- 8.0 1.3---- 0.2------------
1999-06-18 16.1 18.8 14.8- 95.3- 8.0 2.7---- 5.4------------
1999-06-17 17.4 20.1 15.7- 88.5- 8.0 1.0---- 1.1------------
1999-06-16 16.1 18.3 14.2- 87.8- 8.0 1.3---- 0.0------------
245.5 ms

 

Źródłem pochodzenia danych jest Instytut Meteorologii i Gospodarki Wodnej – Państwowy Instytut Badawczy. Dane Instytutu Meteorologii i Gospodarki Wodnej – Państwowego Instytutu Badawczego zostały przetworzone.

Dane źródłowe można odnaleźć na stronie https://dane.imgw.pl